sensor_id;sensor_type;location;lat;lon;timestamp;temperature;humidity
21031;DHT22;61072;47.808;7.636;2023-02-18T00:01:28;11.70;99.90
21031;DHT22;61072;47.808;7.636;2023-02-18T00:03:57;11.70;99.90
21031;DHT22;61072;47.808;7.636;2023-02-18T00:06:30;11.80;99.90
21031;DHT22;61072;47.808;7.636;2023-02-18T00:08:57;11.80;99.90
21031;DHT22;61072;47.808;7.636;2023-02-18T00:11:29;11.80;99.90
21031;DHT22;61072;47.808;7.636;2023-02-18T00:13:59;11.80;99.90
21031;DHT22;61072;47.808;7.636;2023-02-18T00:16:27;11.80;99.90
21031;DHT22;61072;47.808;7.636;2023-02-18T00:18:58;11.80;99.90
21031;DHT22;61072;47.808;7.636;2023-02-18T00:21:25;11.80;99.90
21031;DHT22;61072;47.808;7.636;2023-02-18T00:23:52;11.80;99.90
21031;DHT22;61072;47.808;7.636;2023-02-18T00:26:19;11.80;99.90
21031;DHT22;61072;47.808;7.636;2023-02-18T00:28:47;11.80;99.90
21031;DHT22;61072;47.808;7.636;2023-02-18T00:31:19;11.80;99.90
21031;DHT22;61072;47.808;7.636;2023-02-18T00:33:47;11.80;99.90
21031;DHT22;61072;47.808;7.636;2023-02-18T00:36:16;11.80;99.90
21031;DHT22;61072;47.808;7.636;2023-02-18T00:38:48;11.80;99.90
21031;DHT22;61072;47.808;7.636;2023-02-18T00:41:16;11.80;99.90
21031;DHT22;61072;47.808;7.636;2023-02-18T00:43:43;11.80;99.90
21031;DHT22;61072;47.808;7.636;2023-02-18T00:46:10;11.80;99.90
21031;DHT22;61072;47.808;7.636;2023-02-18T00:48:37;11.80;99.90
21031;DHT22;61072;47.808;7.636;2023-02-18T00:51:05;11.80;99.90
21031;DHT22;61072;47.808;7.636;2023-02-18T00:53:33;11.80;99.90
21031;DHT22;61072;47.808;7.636;2023-02-18T00:56:00;11.80;99.90
21031;DHT22;61072;47.808;7.636;2023-02-18T00:58:27;11.80;99.90
21031;DHT22;61072;47.808;7.636;2023-02-18T01:00:54;11.90;99.90
21031;DHT22;61072;47.808;7.636;2023-02-18T01:03:21;11.90;99.90
21031;DHT22;61072;47.808;7.636;2023-02-18T01:05:49;11.80;99.90
21031;DHT22;61072;47.808;7.636;2023-02-18T01:08:17;11.90;99.90
21031;DHT22;61072;47.808;7.636;2023-02-18T01:10:46;11.90;99.90
21031;DHT22;61072;47.808;7.636;2023-02-18T01:13:14;11.90;99.90
21031;DHT22;61072;47.808;7.636;2023-02-18T01:15:42;11.80;99.90
21031;DHT22;61072;47.808;7.636;2023-02-18T01:18:09;11.80;99.90
21031;DHT22;61072;47.808;7.636;2023-02-18T01:20:37;11.80;99.90
21031;DHT22;61072;47.808;7.636;2023-02-18T01:23:05;11.80;99.90
21031;DHT22;61072;47.808;7.636;2023-02-18T01:25:32;11.90;99.90
21031;DHT22;61072;47.808;7.636;2023-02-18T01:27:59;11.90;99.90
21031;DHT22;61072;47.808;7.636;2023-02-18T01:30:26;11.90;99.90
21031;DHT22;61072;47.808;7.636;2023-02-18T01:32:55;11.90;99.90
21031;DHT22;61072;47.808;7.636;2023-02-18T01:35:21;11.90;99.90
21031;DHT22;61072;47.808;7.636;2023-02-18T01:37:49;11.90;99.90
21031;DHT22;61072;47.808;7.636;2023-02-18T01:40:20;11.90;99.90
21031;DHT22;61072;47.808;7.636;2023-02-18T01:42:47;11.90;99.90
21031;DHT22;61072;47.808;7.636;2023-02-18T01:48:09;11.90;99.90
21031;DHT22;61072;47.808;7.636;2023-02-18T01:50:43;11.90;99.90
21031;DHT22;61072;47.808;7.636;2023-02-18T01:53:14;11.90;99.90
21031;DHT22;61072;47.808;7.636;2023-02-18T01:55:42;11.90;99.90
21031;DHT22;61072;47.808;7.636;2023-02-18T01:58:10;11.90;99.90
21031;DHT22;61072;47.808;7.636;2023-02-18T02:00:38;11.90;99.90
21031;DHT22;61072;47.808;7.636;2023-02-18T02:03:05;11.90;99.90
21031;DHT22;61072;47.808;7.636;2023-02-18T02:05:33;11.90;99.90
21031;DHT22;61072;47.808;7.636;2023-02-18T02:08:00;11.90;99.90
21031;DHT22;61072;47.808;7.636;2023-02-18T02:11:16;11.90;99.90
21031;DHT22;61072;47.808;7.636;2023-02-18T02:16:37;11.90;99.90
21031;DHT22;61072;47.808;7.636;2023-02-18T02:19:21;11.90;99.90
21031;DHT22;61072;47.808;7.636;2023-02-18T02:30:29;11.90;99.90
21031;DHT22;61072;47.808;7.636;2023-02-18T02:33:26;11.90;99.90
21031;DHT22;61072;47.808;7.636;2023-02-18T02:36:33;11.90;99.90
21031;DHT22;61072;47.808;7.636;2023-02-18T02:39:12;11.90;99.90
21031;DHT22;61072;47.808;7.636;2023-02-18T02:44:20;11.90;99.90
21031;DHT22;61072;47.808;7.636;2023-02-18T02:46:50;11.90;99.90
21031;DHT22;61072;47.808;7.636;2023-02-18T02:49:49;11.90;99.90
21031;DHT22;61072;47.808;7.636;2023-02-18T02:52:25;11.90;99.90
21031;DHT22;61072;47.808;7.636;2023-02-18T02:54:52;11.90;99.90
21031;DHT22;61072;47.808;7.636;2023-02-18T02:59:51;11.90;99.90
21031;DHT22;61072;47.808;7.636;2023-02-18T03:02:43;11.90;99.90
21031;DHT22;61072;47.808;7.636;2023-02-18T03:08:04;11.90;99.90
21031;DHT22;61072;47.808;7.636;2023-02-18T03:11:37;11.90;99.90
21031;DHT22;61072;47.808;7.636;2023-02-18T03:14:12;11.90;99.90
21031;DHT22;61072;47.808;7.636;2023-02-18T03:17:00;11.90;99.90
21031;DHT22;61072;47.808;7.636;2023-02-18T03:19:38;11.90;99.90
21031;DHT22;61072;47.808;7.636;2023-02-18T03:22:17;11.90;99.90
21031;DHT22;61072;47.808;7.636;2023-02-18T03:24:47;11.90;99.90
21031;DHT22;61072;47.808;7.636;2023-02-18T03:27:32;11.90;99.90
21031;DHT22;61072;47.808;7.636;2023-02-18T03:30:15;11.90;99.90
21031;DHT22;61072;47.808;7.636;2023-02-18T03:32:44;11.90;99.90
21031;DHT22;61072;47.808;7.636;2023-02-18T03:35:14;11.90;99.90
21031;DHT22;61072;47.808;7.636;2023-02-18T03:37:47;11.90;99.90
21031;DHT22;61072;47.808;7.636;2023-02-18T03:40:16;11.90;99.90
21031;DHT22;61072;47.808;7.636;2023-02-18T03:42:43;11.90;99.90
21031;DHT22;61072;47.808;7.636;2023-02-18T03:45:10;11.90;99.90
21031;DHT22;61072;47.808;7.636;2023-02-18T03:47:37;11.90;99.90
21031;DHT22;61072;47.808;7.636;2023-02-18T03:50:04;11.90;99.90
21031;DHT22;61072;47.808;7.636;2023-02-18T03:52:30;11.90;99.90
21031;DHT22;61072;47.808;7.636;2023-02-18T03:54:57;11.90;99.90
21031;DHT22;61072;47.808;7.636;2023-02-18T03:57:24;11.90;99.90
21031;DHT22;61072;47.808;7.636;2023-02-18T03:59:50;11.90;99.90
21031;DHT22;61072;47.808;7.636;2023-02-18T04:02:17;11.90;99.90
21031;DHT22;61072;47.808;7.636;2023-02-18T04:04:44;11.90;99.90
21031;DHT22;61072;47.808;7.636;2023-02-18T04:07:10;11.90;99.90
21031;DHT22;61072;47.808;7.636;2023-02-18T04:09:37;11.90;99.90
21031;DHT22;61072;47.808;7.636;2023-02-18T04:12:04;11.90;99.90
21031;DHT22;61072;47.808;7.636;2023-02-18T04:14:30;11.90;99.90
21031;DHT22;61072;47.808;7.636;2023-02-18T04:16:57;11.90;99.90
21031;DHT22;61072;47.808;7.636;2023-02-18T04:19:24;11.90;99.90
21031;DHT22;61072;47.808;7.636;2023-02-18T04:21:51;11.90;99.90
21031;DHT22;61072;47.808;7.636;2023-02-18T04:24:17;11.90;99.90
21031;DHT22;61072;47.808;7.636;2023-02-18T04:26:44;11.90;99.90
21031;DHT22;61072;47.808;7.636;2023-02-18T04:29:11;11.90;99.90
21031;DHT22;61072;47.808;7.636;2023-02-18T04:31:38;11.90;99.90
21031;DHT22;61072;47.808;7.636;2023-02-18T04:34:04;11.90;99.90
21031;DHT22;61072;47.808;7.636;2023-02-18T04:36:31;11.90;99.90
21031;DHT22;61072;47.808;7.636;2023-02-18T04:38:58;11.90;99.90
21031;DHT22;61072;47.808;7.636;2023-02-18T04:41:25;11.90;99.90
21031;DHT22;61072;47.808;7.636;2023-02-18T04:43:52;11.90;99.90
21031;DHT22;61072;47.808;7.636;2023-02-18T04:46:18;11.80;99.90
21031;DHT22;61072;47.808;7.636;2023-02-18T04:48:45;11.90;99.90
21031;DHT22;61072;47.808;7.636;2023-02-18T04:51:12;11.90;99.90
21031;DHT22;61072;47.808;7.636;2023-02-18T04:53:38;11.80;99.90
21031;DHT22;61072;47.808;7.636;2023-02-18T04:56:05;11.80;99.90
21031;DHT22;61072;47.808;7.636;2023-02-18T04:58:32;11.80;99.90
21031;DHT22;61072;47.808;7.636;2023-02-18T05:01:00;11.80;99.90
21031;DHT22;61072;47.808;7.636;2023-02-18T05:03:27;11.80;99.90
21031;DHT22;61072;47.808;7.636;2023-02-18T05:05:54;11.80;99.90
21031;DHT22;61072;47.808;7.636;2023-02-18T05:08:21;11.80;99.90
21031;DHT22;61072;47.808;7.636;2023-02-18T05:10:48;11.80;99.90
21031;DHT22;61072;47.808;7.636;2023-02-18T05:13:15;11.80;99.90
21031;DHT22;61072;47.808;7.636;2023-02-18T05:15:42;11.80;99.90
21031;DHT22;61072;47.808;7.636;2023-02-18T05:18:08;11.80;99.90
21031;DHT22;61072;47.808;7.636;2023-02-18T05:20:35;11.80;99.90
21031;DHT22;61072;47.808;7.636;2023-02-18T05:23:02;11.80;99.90
21031;DHT22;61072;47.808;7.636;2023-02-18T05:25:28;11.80;99.90
21031;DHT22;61072;47.808;7.636;2023-02-18T05:27:55;11.80;99.90
21031;DHT22;61072;47.808;7.636;2023-02-18T05:30:22;11.80;99.90
21031;DHT22;61072;47.808;7.636;2023-02-18T05:32:48;11.80;99.90
21031;DHT22;61072;47.808;7.636;2023-02-18T05:35:15;11.80;99.90
21031;DHT22;61072;47.808;7.636;2023-02-18T05:37:42;11.80;99.90
21031;DHT22;61072;47.808;7.636;2023-02-18T05:40:10;11.80;99.90
21031;DHT22;61072;47.808;7.636;2023-02-18T05:42:37;11.80;99.90
21031;DHT22;61072;47.808;7.636;2023-02-18T05:45:04;11.80;99.90
21031;DHT22;61072;47.808;7.636;2023-02-18T05:47:31;11.80;99.90
21031;DHT22;61072;47.808;7.636;2023-02-18T05:49:57;11.80;99.90
21031;DHT22;61072;47.808;7.636;2023-02-18T05:52:24;11.80;99.90
21031;DHT22;61072;47.808;7.636;2023-02-18T05:54:51;11.80;99.90
21031;DHT22;61072;47.808;7.636;2023-02-18T05:57:17;11.80;99.90
21031;DHT22;61072;47.808;7.636;2023-02-18T05:59:44;11.80;99.90
21031;DHT22;61072;47.808;7.636;2023-02-18T06:02:10;11.80;99.90
21031;DHT22;61072;47.808;7.636;2023-02-18T06:04:37;11.90;99.90
21031;DHT22;61072;47.808;7.636;2023-02-18T06:07:05;11.80;99.90
21031;DHT22;61072;47.808;7.636;2023-02-18T06:09:31;11.80;99.90
21031;DHT22;61072;47.808;7.636;2023-02-18T06:11:58;11.80;99.90
21031;DHT22;61072;47.808;7.636;2023-02-18T06:14:25;11.90;99.90
21031;DHT22;61072;47.808;7.636;2023-02-18T06:16:52;11.90;99.90
21031;DHT22;61072;47.808;7.636;2023-02-18T06:19:18;11.90;99.90
21031;DHT22;61072;47.808;7.636;2023-02-18T06:21:45;11.90;99.90
21031;DHT22;61072;47.808;7.636;2023-02-18T06:24:12;11.90;99.90
21031;DHT22;61072;47.808;7.636;2023-02-18T06:26:38;11.90;99.90
21031;DHT22;61072;47.808;7.636;2023-02-18T06:29:05;11.90;99.90
21031;DHT22;61072;47.808;7.636;2023-02-18T06:31:31;11.90;99.90
21031;DHT22;61072;47.808;7.636;2023-02-18T06:33:58;11.90;99.90
21031;DHT22;61072;47.808;7.636;2023-02-18T06:36:25;11.90;99.90
21031;DHT22;61072;47.808;7.636;2023-02-18T06:38:52;12.00;99.90
21031;DHT22;61072;47.808;7.636;2023-02-18T06:41:20;11.90;99.90
21031;DHT22;61072;47.808;7.636;2023-02-18T06:43:46;11.90;99.90
21031;DHT22;61072;47.808;7.636;2023-02-18T06:46:13;11.90;99.90
21031;DHT22;61072;47.808;7.636;2023-02-18T06:48:39;11.90;99.90
21031;DHT22;61072;47.808;7.636;2023-02-18T06:51:06;11.90;99.90
21031;DHT22;61072;47.808;7.636;2023-02-18T06:53:33;11.90;99.90
21031;DHT22;61072;47.808;7.636;2023-02-18T06:56:00;12.00;99.90
21031;DHT22;61072;47.808;7.636;2023-02-18T06:58:26;12.00;99.90
21031;DHT22;61072;47.808;7.636;2023-02-18T07:00:53;12.00;99.90
21031;DHT22;61072;47.808;7.636;2023-02-18T07:03:20;12.00;99.90
21031;DHT22;61072;47.808;7.636;2023-02-18T07:05:47;12.00;99.90
21031;DHT22;61072;47.808;7.636;2023-02-18T07:08:13;12.00;99.90
21031;DHT22;61072;47.808;7.636;2023-02-18T07:10:40;12.00;99.90
21031;DHT22;61072;47.808;7.636;2023-02-18T07:13:06;12.00;99.90
21031;DHT22;61072;47.808;7.636;2023-02-18T07:15:33;12.00;99.90
21031;DHT22;61072;47.808;7.636;2023-02-18T07:18:00;12.10;99.90
21031;DHT22;61072;47.808;7.636;2023-02-18T07:20:27;12.10;99.90
21031;DHT22;61072;47.808;7.636;2023-02-18T07:22:54;12.10;99.90
21031;DHT22;61072;47.808;7.636;2023-02-18T07:25:20;12.10;99.90
21031;DHT22;61072;47.808;7.636;2023-02-18T07:27:49;12.10;99.90
21031;DHT22;61072;47.808;7.636;2023-02-18T07:30:16;12.10;99.90
21031;DHT22;61072;47.808;7.636;2023-02-18T07:32:43;12.10;99.90
21031;DHT22;61072;47.808;7.636;2023-02-18T07:35:13;12.20;99.90
21031;DHT22;61072;47.808;7.636;2023-02-18T07:37:46;12.20;99.90
21031;DHT22;61072;47.808;7.636;2023-02-18T07:40:15;12.20;99.90
21031;DHT22;61072;47.808;7.636;2023-02-18T07:42:42;12.20;99.90
21031;DHT22;61072;47.808;7.636;2023-02-18T07:45:10;12.20;99.90
21031;DHT22;61072;47.808;7.636;2023-02-18T07:47:37;12.30;99.90
21031;DHT22;61072;47.808;7.636;2023-02-18T07:50:05;12.30;99.90
21031;DHT22;61072;47.808;7.636;2023-02-18T07:52:32;12.30;99.90
21031;DHT22;61072;47.808;7.636;2023-02-18T07:54:58;12.40;99.90
21031;DHT22;61072;47.808;7.636;2023-02-18T07:57:25;12.40;99.90
21031;DHT22;61072;47.808;7.636;2023-02-18T07:59:52;12.40;99.90
21031;DHT22;61072;47.808;7.636;2023-02-18T08:02:21;12.40;99.90
21031;DHT22;61072;47.808;7.636;2023-02-18T08:04:48;12.50;99.90
21031;DHT22;61072;47.808;7.636;2023-02-18T08:07:16;12.50;99.90
21031;DHT22;61072;47.808;7.636;2023-02-18T08:09:43;12.50;99.90
21031;DHT22;61072;47.808;7.636;2023-02-18T08:12:10;12.50;99.90
21031;DHT22;61072;47.808;7.636;2023-02-18T08:14:37;12.50;99.90
21031;DHT22;61072;47.808;7.636;2023-02-18T08:17:04;12.50;99.90
21031;DHT22;61072;47.808;7.636;2023-02-18T08:19:30;12.50;99.90
21031;DHT22;61072;47.808;7.636;2023-02-18T08:22:00;12.50;99.90
21031;DHT22;61072;47.808;7.636;2023-02-18T08:24:27;12.60;99.90
21031;DHT22;61072;47.808;7.636;2023-02-18T08:26:54;12.60;99.90
21031;DHT22;61072;47.808;7.636;2023-02-18T08:29:27;12.60;99.90
21031;DHT22;61072;47.808;7.636;2023-02-18T08:31:53;12.60;99.90
21031;DHT22;61072;47.808;7.636;2023-02-18T08:34:22;12.60;99.90
21031;DHT22;61072;47.808;7.636;2023-02-18T08:36:49;12.60;99.90
21031;DHT22;61072;47.808;7.636;2023-02-18T08:39:16;12.70;99.90
21031;DHT22;61072;47.808;7.636;2023-02-18T08:41:42;12.70;99.90
21031;DHT22;61072;47.808;7.636;2023-02-18T08:44:09;12.70;99.90
21031;DHT22;61072;47.808;7.636;2023-02-18T08:46:36;12.70;99.90
21031;DHT22;61072;47.808;7.636;2023-02-18T08:49:03;12.60;99.90
21031;DHT22;61072;47.808;7.636;2023-02-18T08:51:30;12.70;99.90
21031;DHT22;61072;47.808;7.636;2023-02-18T08:53:57;12.70;99.90
21031;DHT22;61072;47.808;7.636;2023-02-18T08:56:24;12.70;99.90
21031;DHT22;61072;47.808;7.636;2023-02-18T08:58:50;12.70;99.90
21031;DHT22;61072;47.808;7.636;2023-02-18T09:01:17;12.70;99.90
21031;DHT22;61072;47.808;7.636;2023-02-18T09:03:44;12.70;99.90
21031;DHT22;61072;47.808;7.636;2023-02-18T09:06:10;12.70;99.90
21031;DHT22;61072;47.808;7.636;2023-02-18T09:08:37;12.80;99.90
21031;DHT22;61072;47.808;7.636;2023-02-18T09:11:04;12.80;99.90
21031;DHT22;61072;47.808;7.636;2023-02-18T09:13:32;12.80;99.90
21031;DHT22;61072;47.808;7.636;2023-02-18T09:16:01;12.80;99.90
21031;DHT22;61072;47.808;7.636;2023-02-18T09:18:29;12.80;99.90
21031;DHT22;61072;47.808;7.636;2023-02-18T09:20:58;12.80;99.90
21031;DHT22;61072;47.808;7.636;2023-02-18T09:23:27;12.80;99.90
21031;DHT22;61072;47.808;7.636;2023-02-18T09:25:55;12.80;99.90
21031;DHT22;61072;47.808;7.636;2023-02-18T09:28:22;12.90;99.90
21031;DHT22;61072;47.808;7.636;2023-02-18T09:30:49;12.90;99.90
21031;DHT22;61072;47.808;7.636;2023-02-18T09:33:16;12.90;99.90
21031;DHT22;61072;47.808;7.636;2023-02-18T09:35:44;13.00;99.90
21031;DHT22;61072;47.808;7.636;2023-02-18T09:38:14;13.00;99.90
21031;DHT22;61072;47.808;7.636;2023-02-18T09:40:44;13.00;99.90
21031;DHT22;61072;47.808;7.636;2023-02-18T09:43:29;13.00;99.90
21031;DHT22;61072;47.808;7.636;2023-02-18T09:45:57;13.00;99.90
21031;DHT22;61072;47.808;7.636;2023-02-18T09:48:31;13.10;99.90
21031;DHT22;61072;47.808;7.636;2023-02-18T09:50:58;13.10;99.90
21031;DHT22;61072;47.808;7.636;2023-02-18T09:53:25;13.10;99.90
21031;DHT22;61072;47.808;7.636;2023-02-18T09:55:54;13.20;99.90
21031;DHT22;61072;47.808;7.636;2023-02-18T09:58:32;13.10;99.90
21031;DHT22;61072;47.808;7.636;2023-02-18T10:03:40;13.10;99.90
21031;DHT22;61072;47.808;7.636;2023-02-18T10:06:15;13.10;99.90
21031;DHT22;61072;47.808;7.636;2023-02-18T10:08:48;13.20;99.90
21031;DHT22;61072;47.808;7.636;2023-02-18T10:11:29;13.20;99.90
21031;DHT22;61072;47.808;7.636;2023-02-18T10:13:56;13.20;99.90
21031;DHT22;61072;47.808;7.636;2023-02-18T10:16:24;13.30;99.90
21031;DHT22;61072;47.808;7.636;2023-02-18T10:18:54;13.30;99.90
21031;DHT22;61072;47.808;7.636;2023-02-18T10:21:28;13.20;99.90
21031;DHT22;61072;47.808;7.636;2023-02-18T10:24:00;13.20;99.90
21031;DHT22;61072;47.808;7.636;2023-02-18T10:26:29;13.20;99.90
21031;DHT22;61072;47.808;7.636;2023-02-18T10:28:57;13.20;99.90
21031;DHT22;61072;47.808;7.636;2023-02-18T10:31:29;13.20;99.90
21031;DHT22;61072;47.808;7.636;2023-02-18T10:34:03;13.30;99.90
21031;DHT22;61072;47.808;7.636;2023-02-18T10:52:46;13.70;99.90
21031;DHT22;61072;47.808;7.636;2023-02-18T10:55:15;13.80;99.90
21031;DHT22;61072;47.808;7.636;2023-02-18T11:00:23;14.00;99.90
21031;DHT22;61072;47.808;7.636;2023-02-18T11:05:35;14.20;99.90
21031;DHT22;61072;47.808;7.636;2023-02-18T11:08:07;14.20;99.90
21031;DHT22;61072;47.808;7.636;2023-02-18T11:10:38;14.30;99.90
21031;DHT22;61072;47.808;7.636;2023-02-18T11:13:07;14.40;99.90
21031;DHT22;61072;47.808;7.636;2023-02-18T11:15:35;14.40;99.90
21031;DHT22;61072;47.808;7.636;2023-02-18T11:18:38;14.40;99.90
21031;DHT22;61072;47.808;7.636;2023-02-18T11:21:35;14.40;99.90
21031;DHT22;61072;47.808;7.636;2023-02-18T11:24:20;14.40;99.90
21031;DHT22;61072;47.808;7.636;2023-02-18T11:26:47;14.50;99.90
21031;DHT22;61072;47.808;7.636;2023-02-18T11:29:21;14.40;99.90
21031;DHT22;61072;47.808;7.636;2023-02-18T11:31:54;14.40;99.90
21031;DHT22;61072;47.808;7.636;2023-02-18T11:34:26;14.40;99.90
21031;DHT22;61072;47.808;7.636;2023-02-18T11:36:55;14.40;99.90
21031;DHT22;61072;47.808;7.636;2023-02-18T11:39:33;14.40;99.90
21031;DHT22;61072;47.808;7.636;2023-02-18T11:42:06;14.40;99.90
21031;DHT22;61072;47.808;7.636;2023-02-18T11:44:39;14.40;99.90
21031;DHT22;61072;47.808;7.636;2023-02-18T11:49:44;14.40;99.90
21031;DHT22;61072;47.808;7.636;2023-02-18T11:52:26;14.50;99.90
21031;DHT22;61072;47.808;7.636;2023-02-18T11:55:10;14.50;99.90
21031;DHT22;61072;47.808;7.636;2023-02-18T11:57:42;14.60;99.90
21031;DHT22;61072;47.808;7.636;2023-02-18T12:00:20;14.50;99.90
21031;DHT22;61072;47.808;7.636;2023-02-18T12:02:48;14.60;99.90
21031;DHT22;61072;47.808;7.636;2023-02-18T12:05:26;14.60;99.90
21031;DHT22;61072;47.808;7.636;2023-02-18T12:08:00;14.70;99.90
21031;DHT22;61072;47.808;7.636;2023-02-18T12:10:41;14.70;99.90
21031;DHT22;61072;47.808;7.636;2023-02-18T12:24:19;14.80;99.90
21031;DHT22;61072;47.808;7.636;2023-02-18T12:27:30;14.80;99.90
21031;DHT22;61072;47.808;7.636;2023-02-18T12:36:08;14.90;99.90
21031;DHT22;61072;47.808;7.636;2023-02-18T12:41:52;14.90;99.90
21031;DHT22;61072;47.808;7.636;2023-02-18T12:49:34;14.90;99.90
21031;DHT22;61072;47.808;7.636;2023-02-18T12:57:50;14.90;99.90
21031;DHT22;61072;47.808;7.636;2023-02-18T13:16:27;14.90;99.90
21031;DHT22;61072;47.808;7.636;2023-02-18T13:19:29;14.90;99.90
21031;DHT22;61072;47.808;7.636;2023-02-18T13:22:09;14.90;99.90
21031;DHT22;61072;47.808;7.636;2023-02-18T13:24:39;14.90;99.90
21031;DHT22;61072;47.808;7.636;2023-02-18T13:27:19;14.90;99.90
21031;DHT22;61072;47.808;7.636;2023-02-18T13:36:03;14.90;99.90
21031;DHT22;61072;47.808;7.636;2023-02-18T13:41:25;14.90;99.90
21031;DHT22;61072;47.808;7.636;2023-02-18T13:43:53;14.90;99.90
21031;DHT22;61072;47.808;7.636;2023-02-18T13:46:21;14.80;99.90
21031;DHT22;61072;47.808;7.636;2023-02-18T13:49:06;14.70;99.90
21031;DHT22;61072;47.808;7.636;2023-02-18T13:51:46;14.50;99.90
21031;DHT22;61072;47.808;7.636;2023-02-18T13:56:53;14.50;99.90
21031;DHT22;61072;47.808;7.636;2023-02-18T13:59:42;14.40;99.90
21031;DHT22;61072;47.808;7.636;2023-02-18T14:04:48;14.50;99.90
21031;DHT22;61072;47.808;7.636;2023-02-18T14:18:09;14.30;99.90
21031;DHT22;61072;47.808;7.636;2023-02-18T14:20:47;14.20;99.90
21031;DHT22;61072;47.808;7.636;2023-02-18T14:26:05;14.20;99.90
21031;DHT22;61072;47.808;7.636;2023-02-18T14:42:30;14.10;99.90
21031;DHT22;61072;47.808;7.636;2023-02-18T14:45:16;14.10;99.90
21031;DHT22;61072;47.808;7.636;2023-02-18T14:50:23;14.10;99.90
21031;DHT22;61072;47.808;7.636;2023-02-18T14:52:56;14.00;99.90
21031;DHT22;61072;47.808;7.636;2023-02-18T14:55:26;14.00;99.90
21031;DHT22;61072;47.808;7.636;2023-02-18T14:57:58;14.00;99.90
21031;DHT22;61072;47.808;7.636;2023-02-18T15:00:28;14.00;99.90
21031;DHT22;61072;47.808;7.636;2023-02-18T15:03:00;14.00;99.90
21031;DHT22;61072;47.808;7.636;2023-02-18T15:05:30;14.00;99.90
21031;DHT22;61072;47.808;7.636;2023-02-18T15:08:02;14.00;99.90
21031;DHT22;61072;47.808;7.636;2023-02-18T15:10:59;14.00;99.90
21031;DHT22;61072;47.808;7.636;2023-02-18T15:13:33;13.90;99.90
21031;DHT22;61072;47.808;7.636;2023-02-18T15:16:06;14.00;99.90
21031;DHT22;61072;47.808;7.636;2023-02-18T15:21:02;13.90;99.90
21031;DHT22;61072;47.808;7.636;2023-02-18T15:23:30;13.90;99.90
21031;DHT22;61072;47.808;7.636;2023-02-18T15:26:00;13.90;99.90
21031;DHT22;61072;47.808;7.636;2023-02-18T15:28:29;13.90;99.90
21031;DHT22;61072;47.808;7.636;2023-02-18T15:30:59;13.80;99.90
21031;DHT22;61072;47.808;7.636;2023-02-18T15:33:27;13.80;99.90
21031;DHT22;61072;47.808;7.636;2023-02-18T15:36:02;13.80;99.90
21031;DHT22;61072;47.808;7.636;2023-02-18T15:38:30;13.80;99.90
21031;DHT22;61072;47.808;7.636;2023-02-18T15:40:58;13.70;99.90
21031;DHT22;61072;47.808;7.636;2023-02-18T15:43:25;13.70;99.90
21031;DHT22;61072;47.808;7.636;2023-02-18T15:45:55;13.70;99.90
21031;DHT22;61072;47.808;7.636;2023-02-18T15:48:34;13.80;99.90
21031;DHT22;61072;47.808;7.636;2023-02-18T15:51:04;13.70;99.90
21031;DHT22;61072;47.808;7.636;2023-02-18T15:53:44;13.70;99.90
21031;DHT22;61072;47.808;7.636;2023-02-18T15:56:17;13.70;99.90
21031;DHT22;61072;47.808;7.636;2023-02-18T15:58:46;13.70;99.90
21031;DHT22;61072;47.808;7.636;2023-02-18T16:01:27;13.70;99.90
21031;DHT22;61072;47.808;7.636;2023-02-18T16:03:55;13.70;99.90
21031;DHT22;61072;47.808;7.636;2023-02-18T16:06:28;13.60;99.90
21031;DHT22;61072;47.808;7.636;2023-02-18T16:11:43;13.60;99.90
21031;DHT22;61072;47.808;7.636;2023-02-18T16:17:08;13.60;99.90
21031;DHT22;61072;47.808;7.636;2023-02-18T16:19:50;13.60;99.90
21031;DHT22;61072;47.808;7.636;2023-02-18T16:22:32;13.50;99.90
21031;DHT22;61072;47.808;7.636;2023-02-18T16:27:53;13.50;99.90
21031;DHT22;61072;47.808;7.636;2023-02-18T16:30:24;13.40;99.90
21031;DHT22;61072;47.808;7.636;2023-02-18T16:32:50;13.40;99.90
21031;DHT22;61072;47.808;7.636;2023-02-18T16:35:18;13.30;99.90
21031;DHT22;61072;47.808;7.636;2023-02-18T16:37:45;13.30;99.90
21031;DHT22;61072;47.808;7.636;2023-02-18T16:40:44;13.30;99.90
21031;DHT22;61072;47.808;7.636;2023-02-18T16:43:16;13.20;99.90
21031;DHT22;61072;47.808;7.636;2023-02-18T16:45:49;13.10;99.90
21031;DHT22;61072;47.808;7.636;2023-02-18T16:48:20;13.10;99.90
21031;DHT22;61072;47.808;7.636;2023-02-18T16:50:49;13.10;99.90
21031;DHT22;61072;47.808;7.636;2023-02-18T16:53:17;13.00;99.90
21031;DHT22;61072;47.808;7.636;2023-02-18T16:55:43;13.00;99.90
21031;DHT22;61072;47.808;7.636;2023-02-18T16:58:10;13.00;99.90
21031;DHT22;61072;47.808;7.636;2023-02-18T17:00:37;12.90;99.90
21031;DHT22;61072;47.808;7.636;2023-02-18T17:03:04;12.90;99.90
21031;DHT22;61072;47.808;7.636;2023-02-18T17:05:32;12.90;99.90
21031;DHT22;61072;47.808;7.636;2023-02-18T17:08:20;12.80;99.90
21031;DHT22;61072;47.808;7.636;2023-02-18T17:10:54;12.80;99.90
21031;DHT22;61072;47.808;7.636;2023-02-18T17:13:24;12.80;99.90
21031;DHT22;61072;47.808;7.636;2023-02-18T17:15:53;12.70;99.90
21031;DHT22;61072;47.808;7.636;2023-02-18T17:18:20;12.70;99.90
21031;DHT22;61072;47.808;7.636;2023-02-18T17:20:48;12.60;99.90
21031;DHT22;61072;47.808;7.636;2023-02-18T17:23:17;12.60;99.90
21031;DHT22;61072;47.808;7.636;2023-02-18T17:25:47;12.60;99.90
21031;DHT22;61072;47.808;7.636;2023-02-18T17:28:14;12.60;99.90
21031;DHT22;61072;47.808;7.636;2023-02-18T17:30:47;12.50;99.90
21031;DHT22;61072;47.808;7.636;2023-02-18T17:33:15;12.50;99.90
21031;DHT22;61072;47.808;7.636;2023-02-18T17:35:42;12.50;99.90
21031;DHT22;61072;47.808;7.636;2023-02-18T17:38:15;12.40;99.90
21031;DHT22;61072;47.808;7.636;2023-02-18T17:40:42;12.40;99.90
21031;DHT22;61072;47.808;7.636;2023-02-18T17:43:13;12.40;99.90
21031;DHT22;61072;47.808;7.636;2023-02-18T17:45:49;12.40;99.90
21031;DHT22;61072;47.808;7.636;2023-02-18T17:48:16;12.40;99.90
21031;DHT22;61072;47.808;7.636;2023-02-18T17:50:43;12.40;99.90
21031;DHT22;61072;47.808;7.636;2023-02-18T17:53:11;12.40;99.90
21031;DHT22;61072;47.808;7.636;2023-02-18T17:55:39;12.30;99.90
21031;DHT22;61072;47.808;7.636;2023-02-18T17:58:07;12.30;99.90
21031;DHT22;61072;47.808;7.636;2023-02-18T18:00:36;12.30;99.90
21031;DHT22;61072;47.808;7.636;2023-02-18T18:03:04;12.30;99.90
21031;DHT22;61072;47.808;7.636;2023-02-18T18:05:33;12.30;99.90
21031;DHT22;61072;47.808;7.636;2023-02-18T18:08:01;12.30;99.90
21031;DHT22;61072;47.808;7.636;2023-02-18T18:10:32;12.30;99.90
21031;DHT22;61072;47.808;7.636;2023-02-18T18:13:01;12.30;99.90
21031;DHT22;61072;47.808;7.636;2023-02-18T18:15:35;12.30;99.90
21031;DHT22;61072;47.808;7.636;2023-02-18T18:18:02;12.30;99.90
21031;DHT22;61072;47.808;7.636;2023-02-18T18:20:31;12.30;99.90
21031;DHT22;61072;47.808;7.636;2023-02-18T18:22:59;12.30;99.90